Allerton, Iowa
Current Conditions -  °F | °C
As of 2:35 AM on Saturday 20 Dec 2014 (Local Time) from KCNC Reporting Station
Haze Haze  
Wind Chill: 26°   Ceiling: 400
Heat Index: 32°   Visibility: 3mi
Dew Point: 32°   Wind: 7mph
Humidity: 100%   Direction: 170°S
Pressure: 30.18"   Gusts: NA
Location:  40.71°N, 93.37°W
Report Text: KCNC 200835Z AUTO 17006KT 3SM BR BKN004 BKN007 OVC015 00/M00 A3018 RMK AO2
Loading
Personal Weather Stations






























Interactive Weather Map New forecast layout! Learn more

10-Day Weather Forecast

Advertisements
Track Severe Weather on mobile